Predator — ZCTY5 — position and weather

sailwx.info

Track history (hours):
 
Tides and Currents Weather Stations Pressure Air Temp Water Temp Dewpoint Dewpoint Depression Visibility Wind Speed Wind Dir Waves Ship Positions

Predator

Last reported at 2014-Aug-28 19:16 UTC. Time now 2014-Aug-29 14:23 UTC.
Position N 43°53' E 008°02'.

Length 73 m; draft 4.3 m.

Type: Passenger vessel. MMSI: 319300000.

Date/timePositionNaut miles runAvg speedWind from/ knotsBaromVisibWave heightAir tempDewpointWater temp
2014-Aug-28 19:16N 43°53' E 008°02'0 0.0
2014-Aug-28 18:27N 43°53' E 008°02'0 0.0
2014-Aug-28 16:09N 43°53' E 008°02'0 0.0
2014-Aug-28 15:28N 43°53' E 008°02'0 0.0
2014-Aug-28 14:33N 43°53' E 008°02'0 0.0
2014-Aug-28 09:08N 43°53' E 008°02'0 0.0
2014-Aug-28 08:18N 43°53' E 008°02'  
2014-Aug-25 14:33N 43°53' E 008°02'0 0.0
2014-Aug-25 12:31N 43°53' E 008°02'49 6.1
2014-Aug-25 04:32N 43°19' E 007°12'1717.5
2014-Aug-25 03:33N 43°18' E 006°49'9 8.0
2014-Aug-25 02:26N 43°16' E 006°37'0 0.0
2014-Aug-25 01:32N 43°16' E 006°37'0 0.0
2014-Aug-25 00:28N 43°16' E 006°37'0 0.0
2014-Aug-24 23:31N 43°16' E 006°37'0 0.0
2014-Aug-24 22:30N 43°16' E 006°37'0 0.0
2014-Aug-24 21:24N 43°16' E 006°37'0 0.0
2014-Aug-24 20:33N 43°16' E 006°37'0 0.0
2014-Aug-24 19:33N 43°16' E 006°37'0 0.0
2014-Aug-24 18:31N 43°16' E 006°37'0 0.0
2014-Aug-24 17:32N 43°16' E 006°37'0 0.0
2014-Aug-24 16:30N 43°16' E 006°37'7 7.2
2014-Aug-24 15:33N 43°18' E 006°46'2520.5
2014-Aug-24 14:20N 43°25' E 007°19'7318.6
2014-Aug-24 10:26N 43°33' E 008°59'1717.2
2014-Aug-24 09:27N 43°28' E 009°21'1914.1
2014-Aug-24 08:07N 43°19' E 009°43'  
2014-Aug-21 15:33N 43°08' E 007°08'1615.8
2014-Aug-21 14:33N 43°16' E 006°50'10 9.8
2014-Aug-21 13:33N 43°16' E 006°37'0 0.0
2014-Aug-21 12:33N 43°16' E 006°37'0 0.0
2014-Aug-21 11:26N 43°16' E 006°37'0 0.0
2014-Aug-21 10:28N 43°16' E 006°37'0 0.0
2014-Aug-21 09:33N 43°16' E 006°37'0 0.0
2014-Aug-21 08:31N 43°16' E 006°37'0 0.0
2014-Aug-21 07:33N 43°16' E 006°37'0 0.0
2014-Aug-21 06:33N 43°16' E 006°37'0 0.0
2014-Aug-21 05:33N 43°16' E 006°37'0 0.0
2014-Aug-21 04:32N 43°16' E 006°37'0 0.0
2014-Aug-21 03:26N 43°16' E 006°37'0 0.0
2014-Aug-21 02:18N 43°16' E 006°37'0 0.0
2014-Aug-21 01:28N 43°16' E 006°37'1111.5
2014-Aug-21 00:34N 43°21' E 006°49'1918.9
2014-Aug-20 23:34N 43°32' E 007°10'1313.0
2014-Aug-20 22:32N 43°43' E 007°22'5 0.9
2014-Aug-20 17:20N 43°45' E 007°28'1013.2
2014-Aug-20 16:32N 43°37' E 007°18'1818.6
2014-Aug-20 15:33N 43°26' E 006°58'1818.3
2014-Aug-20 14:33N 43°16' E 006°37'7 6.6
2014-Aug-20 13:31N 43°20' E 006°45'1819.1
2014-Aug-20 12:33N 43°28' E 007°07'  
Track history (hours):
 
Tides and Currents Weather Stations Pressure Air Temp Water Temp Dewpoint Dewpoint Depression Visibility Wind Speed Wind Dir Waves Ship Positions

Predator

Last reported at 2014-Aug-28 19:16 UTC. Time now 2014-Aug-29 14:23 UTC.
Position N 43°53' E 008°02'.

Length 73 m; draft 4.3 m.

Type: Passenger vessel. MMSI: 319300000.

Date/timePositionNaut miles runAvg speedWind from/ knotsBaromVisibWave heightAir tempDewpointWater temp
2014-Aug-28 19:16N 43°53' E 008°02'0 0.0
2014-Aug-28 18:27N 43°53' E 008°02'0 0.0
2014-Aug-28 16:09N 43°53' E 008°02'0 0.0
2014-Aug-28 15:28N 43°53' E 008°02'0 0.0
2014-Aug-28 14:33N 43°53' E 008°02'0 0.0
2014-Aug-28 09:08N 43°53' E 008°02'0 0.0
2014-Aug-28 08:18N 43°53' E 008°02'  
2014-Aug-25 14:33N 43°53' E 008°02'0 0.0
2014-Aug-25 12:31N 43°53' E 008°02'49 6.1
2014-Aug-25 04:32N 43°19' E 007°12'1717.5
2014-Aug-25 03:33N 43°18' E 006°49'9 8.0
2014-Aug-25 02:26N 43°16' E 006°37'0 0.0
2014-Aug-25 01:32N 43°16' E 006°37'0 0.0
2014-Aug-25 00:28N 43°16' E 006°37'0 0.0
2014-Aug-24 23:31N 43°16' E 006°37'0 0.0
2014-Aug-24 22:30N 43°16' E 006°37'0 0.0
2014-Aug-24 21:24N 43°16' E 006°37'0 0.0
2014-Aug-24 20:33N 43°16' E 006°37'0 0.0
2014-Aug-24 19:33N 43°16' E 006°37'0 0.0
2014-Aug-24 18:31N 43°16' E 006°37'0 0.0
2014-Aug-24 17:32N 43°16' E 006°37'0 0.0
2014-Aug-24 16:30N 43°16' E 006°37'7 7.2
2014-Aug-24 15:33N 43°18' E 006°46'2520.5
2014-Aug-24 14:20N 43°25' E 007°19'7318.6
2014-Aug-24 10:26N 43°33' E 008°59'1717.2
2014-Aug-24 09:27N 43°28' E 009°21'1914.1
2014-Aug-24 08:07N 43°19' E 009°43'  
2014-Aug-21 15:33N 43°08' E 007°08'1615.8
2014-Aug-21 14:33N 43°16' E 006°50'10 9.8
2014-Aug-21 13:33N 43°16' E 006°37'0 0.0
2014-Aug-21 12:33N 43°16' E 006°37'0 0.0
2014-Aug-21 11:26N 43°16' E 006°37'0 0.0
2014-Aug-21 10:28N 43°16' E 006°37'0 0.0
2014-Aug-21 09:33N 43°16' E 006°37'0 0.0
2014-Aug-21 08:31N 43°16' E 006°37'0 0.0
2014-Aug-21 07:33N 43°16' E 006°37'0 0.0
2014-Aug-21 06:33N 43°16' E 006°37'0 0.0
2014-Aug-21 05:33N 43°16' E 006°37'0 0.0
2014-Aug-21 04:32N 43°16' E 006°37'0 0.0
2014-Aug-21 03:26N 43°16' E 006°37'0 0.0
2014-Aug-21 02:18N 43°16' E 006°37'0 0.0
2014-Aug-21 01:28N 43°16' E 006°37'1111.5
2014-Aug-21 00:34N 43°21' E 006°49'1918.9
2014-Aug-20 23:34N 43°32' E 007°10'1313.0
2014-Aug-20 22:32N 43°43' E 007°22'5 0.9
2014-Aug-20 17:20N 43°45' E 007°28'1013.2
2014-Aug-20 16:32N 43°37' E 007°18'1818.6
2014-Aug-20 15:33N 43°26' E 006°58'1818.3
2014-Aug-20 14:33N 43°16' E 006°37'7 6.6
2014-Aug-20 13:31N 43°20' E 006°45'1819.1
2014-Aug-20 12:33N 43°28' E 007°07'  

Dump ship's entire track history